Time;durP1;ratioP1;P1;durP2;ratioP2;P2;SDS_P1;SDS_P2;PMS_P1;PMS_P2;Temp;Humidity;BMP_temperature;BMP_pressure;BME280_temperature;BME280_humidity;BME280_pressure;Samples;Min_cycle;Max_cycle;Signal;HPM_P1;HPM_P2
2021/08/08 00:01:56;;;;;;;0.73;0.73;;;23.70;56.60;;;;;;5103595;27;20235;-70
2021/08/08 00:04:23;;;;;;;0.73;0.70;;;23.70;56.60;;;;;;5109692;28;20200;-70
2021/08/08 00:06:50;;;;;;;1.10;0.87;;;23.70;56.60;;;;;;5097406;28;20209;-70
2021/08/08 00:09:16;;;;;;;0.67;0.57;;;23.60;56.50;;;;;;5098189;28;20197;-69
2021/08/08 00:11:43;;;;;;;0.90;0.90;;;23.70;56.50;;;;;;5102903;28;20645;-70
2021/08/08 00:14:10;;;;;;;2.10;0.70;;;23.60;56.50;;;;;;5099396;28;20211;-70
2021/08/08 00:16:37;;;;;;;0.97;0.87;;;23.70;56.50;;;;;;5097215;28;20219;-70
2021/08/08 00:19:04;;;;;;;1.60;0.70;;;23.70;56.60;;;;;;5106254;28;20192;-70
2021/08/08 00:21:31;;;;;;;0.80;0.80;;;23.70;56.60;;;;;;5099797;28;20223;-70
2021/08/08 00:23:57;;;;;;;0.97;0.80;;;23.70;56.60;;;;;;5107672;28;20208;-70
2021/08/08 00:26:24;;;;;;;0.90;0.90;;;23.70;56.60;;;;;;5102792;28;20192;-70
2021/08/08 00:28:51;;;;;;;0.70;0.70;;;23.70;56.50;;;;;;5089938;28;20199;-70
2021/08/08 00:31:22;;;;;;;0.87;0.60;;;23.70;56.60;;;;;;5099415;28;20207;-70
2021/08/08 00:33:53;;;;;;;1.20;0.80;;;23.60;57.20;;;;;;5109112;28;20242;-70
2021/08/08 00:36:20;;;;;;;0.90;0.90;;;23.70;56.50;;;;;;5104209;27;20195;-70
2021/08/08 00:38:47;;;;;;;1.00;0.80;;;23.70;56.60;;;;;;5105675;28;20192;-70
2021/08/08 00:41:15;;;;;;;0.80;0.80;;;23.60;56.50;;;;;;5100165;28;20192;-70
2021/08/08 00:43:41;;;;;;;0.80;0.80;;;23.70;56.70;;;;;;5105132;28;20200;-70
2021/08/08 00:46:09;;;;;;;0.70;0.70;;;23.60;56.50;;;;;;5102766;28;20200;-70
2021/08/08 00:48:36;;;;;;;1.23;1.00;;;23.60;56.60;;;;;;5106456;28;20199;-70
2021/08/08 00:51:03;;;;;;;1.20;0.70;;;23.60;56.60;;;;;;5102985;28;20687;-70
2021/08/08 00:53:30;;;;;;;0.93;0.90;;;23.70;56.60;;;;;;5098171;28;20193;-70
2021/08/08 00:55:57;;;;;;;0.90;0.70;;;23.60;56.60;;;;;;5101946;28;20552;-70
2021/08/08 00:58:26;;;;;;;2.30;1.07;;;23.60;56.60;;;;;;5099804;28;20208;-70
2021/08/08 01:01:02;;;;;;;0.73;0.73;;;23.60;57.20;;;;;;5108767;28;20232;-70
2021/08/08 01:03:30;;;;;;;0.90;0.90;;;23.60;56.60;;;;;;5100326;28;20303;-70
2021/08/08 01:06:23;;;;;;;1.07;0.97;;;23.60;56.60;;;;;;5093071;28;20215;-70
2021/08/08 01:08:57;;;;;;;0.80;0.80;;;23.60;56.60;;;;;;5095843;28;20215;-70
2021/08/08 01:11:24;;;;;;;0.80;0.80;;;23.60;56.60;;;;;;5098786;28;20204;-70
2021/08/08 01:13:52;;;;;;;1.13;0.90;;;23.60;56.60;;;;;;5092216;28;20193;-70
2021/08/08 01:16:21;;;;;;;1.00;0.90;;;23.60;56.60;;;;;;5103249;28;20196;-71
2021/08/08 01:18:49;;;;;;;1.20;0.77;;;23.60;56.60;;;;;;5098641;28;20200;-70
2021/08/08 01:21:17;;;;;;;1.20;1.10;;;23.60;56.60;;;;;;5102195;28;20220;-70
2021/08/08 01:23:52;;;;;;;1.53;0.93;;;23.60;56.60;;;;;;5102036;28;20211;-70
2021/08/08 01:26:19;;;;;;;1.23;0.97;;;23.60;56.70;;;;;;5106098;28;20199;-70
2021/08/08 01:28:46;;;;;;;1.57;0.90;;;23.60;56.60;;;;;;5102715;28;20200;-71
2021/08/08 01:31:12;;;;;;;0.83;0.83;;;23.60;56.60;;;;;;5098062;28;20209;-70
2021/08/08 01:33:39;;;;;;;1.73;1.03;;;23.60;56.60;;;;;;5103184;28;20625;-70
2021/08/08 01:36:06;;;;;;;0.90;0.90;;;23.60;56.70;;;;;;5098013;28;20209;-70
2021/08/08 01:38:36;;;;;;;1.27;1.00;;;23.60;56.70;;;;;;5107666;28;20207;-70
2021/08/08 01:41:04;;;;;;;1.33;0.90;;;23.60;56.70;;;;;;5098963;28;20201;-70
2021/08/08 01:43:33;;;;;;;1.73;1.03;;;23.60;56.70;;;;;;5095017;28;20251;-70
2021/08/08 01:46:05;;;;;;;1.23;0.90;;;23.60;56.70;;;;;;5097667;28;20188;-70
2021/08/08 01:48:34;;;;;;;1.30;0.90;;;23.50;56.60;;;;;;5105628;28;20213;-70
2021/08/08 01:51:01;;;;;;;1.53;0.80;;;23.60;56.70;;;;;;5099233;28;20195;-70
2021/08/08 01:53:28;;;;;;;1.07;0.97;;;23.60;56.70;;;;;;5087838;28;20215;-70
2021/08/08 01:55:55;;;;;;;1.23;1.13;;;23.50;56.70;;;;;;5098116;28;20193;-70
2021/08/08 01:58:28;;;;;;;1.00;0.73;;;23.50;56.70;;;;;;5105963;28;20201;-70
2021/08/08 02:01:02;;;;;;;1.07;0.90;;;23.50;56.70;;;;;;5099035;28;20235;-70
2021/08/08 02:03:42;;;;;;;1.47;0.87;;;23.50;56.70;;;;;;5105405;28;20700;-70
2021/08/08 02:06:12;;;;;;;1.63;1.00;;;23.50;56.70;;;;;;5112372;28;20195;-70
2021/08/08 02:08:40;;;;;;;1.60;1.30;;;23.50;56.70;;;;;;5110120;28;20189;-70
2021/08/08 02:11:08;;;;;;;1.80;1.37;;;23.60;56.70;;;;;;5112285;28;20277;-70
2021/08/08 02:13:39;;;;;;;1.27;0.83;;;23.50;56.70;;;;;;5104845;28;20227;-70
2021/08/08 02:16:10;;;;;;;1.10;0.90;;;23.50;56.70;;;;;;5110085;28;20200;-70
2021/08/08 02:18:40;;;;;;;0.90;0.90;;;23.50;56.70;;;;;;5106714;28;20213;-70
2021/08/08 02:21:09;;;;;;;1.30;1.20;;;23.50;56.70;;;;;;5105045;28;20640;-70
2021/08/08 02:23:39;;;;;;;1.40;1.00;;;23.50;56.70;;;;;;5107032;28;20220;-70
2021/08/08 02:26:11;;;;;;;1.53;0.87;;;23.50;56.70;;;;;;5104695;28;20858;-71
2021/08/08 02:28:43;;;;;;;1.00;0.90;;;23.50;56.70;;;;;;5110403;28;20688;-70
2021/08/08 02:31:15;;;;;;;2.07;1.30;;;23.50;56.80;;;;;;5113810;28;20642;-70
2021/08/08 02:33:46;;;;;;;1.10;1.00;;;23.50;56.70;;;;;;5096969;28;20192;-71
2021/08/08 02:36:17;;;;;;;1.27;1.00;;;23.50;56.70;;;;;;5118917;27;20593;-71
2021/08/08 02:38:46;;;;;;;0.90;0.87;;;23.50;56.70;;;;;;5112945;28;20252;-70
2021/08/08 02:41:19;;;;;;;1.50;1.20;;;23.50;56.80;;;;;;5116519;28;20200;-70
2021/08/08 02:43:53;;;;;;;1.00;0.90;;;23.50;56.70;;;;;;5108247;28;20224;-70
2021/08/08 02:46:23;;;;;;;1.97;1.27;;;23.40;56.70;;;;;;5117924;28;20220;-70
2021/08/08 02:48:53;;;;;;;1.10;1.00;;;23.40;56.70;;;;;;5136470;27;20657;-71
2021/08/08 02:51:26;;;;;;;1.20;0.97;;;23.40;56.70;;;;;;5100492;28;20207;-70
2021/08/08 02:53:55;;;;;;;1.30;1.20;;;23.40;56.70;;;;;;5112148;28;20253;-70
2021/08/08 02:56:26;;;;;;;1.63;1.30;;;23.40;56.70;;;;;;5103667;28;20211;-70
2021/08/08 02:58:57;;;;;;;1.40;1.27;;;23.40;56.70;;;;;;5110083;28;20197;-70
2021/08/08 03:01:27;;;;;;;1.50;1.07;;;23.50;56.80;;;;;;5099489;28;20733;-70
2021/08/08 03:03:57;;;;;;;1.53;1.37;;;23.40;56.70;;;;;;5107388;28;20219;-70
2021/08/08 03:06:29;;;;;;;1.57;1.03;;;23.40;56.70;;;;;;5102189;28;20193;-70
2021/08/08 03:08:58;;;;;;;1.10;1.00;;;23.50;56.80;;;;;;5099591;28;20648;-70
2021/08/08 03:11:34;;;;;;;1.60;1.27;;;23.50;56.80;;;;;;5109452;28;20196;-70
2021/08/08 03:14:17;;;;;;;2.13;1.20;;;23.50;56.80;;;;;;5104397;28;20310;-70
2021/08/08 03:16:49;;;;;;;2.20;1.33;;;23.40;56.70;;;;;;5108117;28;20201;-70
2021/08/08 03:19:20;;;;;;;2.07;1.20;;;23.50;56.80;;;;;;5101677;28;20223;-70
2021/08/08 03:21:51;;;;;;;1.30;1.10;;;23.40;56.70;;;;;;5097211;28;20192;-70
2021/08/08 03:24:20;;;;;;;1.50;1.40;;;23.40;56.70;;;;;;5102249;28;20205;-70
2021/08/08 03:26:50;;;;;;;1.27;1.17;;;23.50;56.80;;;;;;5109240;28;20200;-70
2021/08/08 03:29:20;;;;;;;1.77;1.10;;;23.50;56.80;;;;;;5102275;28;20208;-70
2021/08/08 03:31:50;;;;;;;2.13;1.33;;;23.40;56.70;;;;;;5105688;28;20648;-70
2021/08/08 03:34:22;;;;;;;2.47;1.50;;;23.40;56.70;;;;;;5100286;28;20216;-70
2021/08/08 03:36:50;;;;;;;3.37;1.40;;;23.40;56.70;;;;;;5106400;28;20257;-71
2021/08/08 03:39:23;;;;;;;1.93;1.20;;;23.40;56.70;;;;;;5102085;28;20715;-70
2021/08/08 03:41:55;;;;;;;1.93;1.20;;;23.40;56.70;;;;;;5106671;28;20208;-70
2021/08/08 03:44:25;;;;;;;1.43;1.10;;;23.40;56.70;;;;;;5107660;28;20677;-70
2021/08/08 03:46:56;;;;;;;1.00;0.90;;;23.40;56.70;;;;;;5109209;28;20188;-70
2021/08/08 03:49:28;;;;;;;1.57;1.00;;;23.40;56.80;;;;;;5104834;28;20212;-70
2021/08/08 03:52:00;;;;;;;2.37;1.37;;;23.40;56.70;;;;;;5102032;28;20802;-70
2021/08/08 03:54:31;;;;;;;2.97;1.40;;;23.40;56.80;;;;;;5107020;28;20196;-70
2021/08/08 03:57:02;;;;;;;2.10;1.10;;;23.40;56.80;;;;;;5102533;28;20199;-71
2021/08/08 03:59:34;;;;;;;2.77;1.33;;;23.40;56.80;;;;;;5102335;28;20253;-70
2021/08/08 04:02:06;;;;;;;1.40;1.20;;;23.40;56.80;;;;;;5110768;28;20224;-70
2021/08/08 04:04:37;;;;;;;2.00;1.30;;;23.40;56.80;;;;;;5108395;28;20196;-70
2021/08/08 04:07:06;;;;;;;1.77;1.20;;;23.40;56.80;;;;;;5109582;28;20204;-71
2021/08/08 04:09:36;;;;;;;2.80;1.10;;;23.40;56.70;;;;;;5106549;28;20198;-70
2021/08/08 04:12:07;;;;;;;1.43;0.97;;;23.40;56.70;;;;;;5116431;28;20200;-71
2021/08/08 04:14:43;;;;;;;2.33;1.17;;;23.30;56.60;;;;;;5092607;28;20277;-71
2021/08/08 04:17:17;;;;;;;2.07;1.30;;;23.30;56.60;;;;;;5112371;28;20207;-70
2021/08/08 04:19:45;;;;;;;1.97;1.13;;;23.30;56.60;;;;;;5099054;28;20213;-70
2021/08/08 04:22:15;;;;;;;1.63;1.10;;;23.40;56.70;;;;;;5113384;28;20288;-71
2021/08/08 04:24:46;;;;;;;1.27;1.00;;;23.30;56.60;;;;;;5104849;28;20200;-71
2021/08/08 04:27:21;;;;;;;2.10;1.00;;;23.40;56.60;;;;;;5104884;28;20204;-71
2021/08/08 04:29:51;;;;;;;2.17;1.37;;;23.30;56.60;;;;;;5098778;28;20235;-71
2021/08/08 04:32:25;;;;;;;1.87;1.10;;;23.30;56.60;;;;;;5100105;28;20202;-70
2021/08/08 04:34:56;;;;;;;1.77;1.30;;;23.30;56.60;;;;;;5098687;28;20433;-70
2021/08/08 04:37:27;;;;;;;2.57;1.33;;;23.30;56.60;;;;;;5108232;28;20274;-71
2021/08/08 04:39:58;;;;;;;1.83;1.10;;;23.30;56.50;;;;;;5102743;28;20199;-71
2021/08/08 04:42:29;;;;;;;4.53;1.43;;;23.30;56.50;;;;;;5104874;28;20227;-71
2021/08/08 04:45:00;;;;;;;2.63;1.37;;;23.30;56.50;;;;;;5101471;28;20193;-71
2021/08/08 04:47:30;;;;;;;2.47;1.43;;;23.30;56.50;;;;;;5105465;28;20207;-72
2021/08/08 04:50:01;;;;;;;2.30;1.20;;;23.30;56.40;;;;;;5108205;28;20538;-71
2021/08/08 04:52:45;;;;;;;1.80;1.30;;;23.30;56.40;;;;;;5104313;28;20228;-71
2021/08/08 04:55:16;;;;;;;3.23;1.30;;;23.30;56.40;;;;;;5105942;28;20207;-71
2021/08/08 04:57:45;;;;;;;3.20;1.43;;;23.30;56.40;;;;;;5103910;28;20722;-71
2021/08/08 05:00:16;;;;;;;2.63;1.40;;;23.30;56.40;;;;;;5102228;28;20232;-71
2021/08/08 05:02:48;;;;;;;2.00;1.33;;;23.30;56.40;;;;;;5098406;28;20755;-72
2021/08/08 05:05:31;;;;;;;2.93;1.27;;;23.30;56.40;;;;;;5095027;28;20279;-71
2021/08/08 05:08:04;;;;;;;2.43;1.30;;;23.30;56.40;;;;;;5102106;28;20690;-71
2021/08/08 05:10:32;;;;;;;3.00;1.40;;;23.20;56.30;;;;;;5107361;28;20235;-71
2021/08/08 05:13:02;;;;;;;2.80;1.47;;;23.30;56.30;;;;;;5097006;28;20541;-71
2021/08/08 05:15:34;;;;;;;2.63;1.10;;;23.30;56.30;;;;;;5104185;28;20193;-70
2021/08/08 05:18:07;;;;;;;4.07;1.57;;;23.30;56.30;;;;;;5100888;28;20204;-70
2021/08/08 05:20:38;;;;;;;3.00;1.53;;;23.30;56.30;;;;;;5104939;28;20219;-71
2021/08/08 05:23:06;;;;;;;3.67;1.40;;;23.30;56.30;;;;;;5102716;28;20193;-71
2021/08/08 05:25:36;;;;;;;2.43;1.33;;;23.20;56.30;;;;;;5096263;28;20240;-71
2021/08/08 05:28:09;;;;;;;1.93;1.37;;;23.30;56.30;;;;;;5093817;28;20306;-72
2021/08/08 05:30:40;;;;;;;3.80;1.50;;;23.30;56.20;;;;;;5100283;28;20212;-71
2021/08/08 05:33:10;;;;;;;3.17;1.63;;;23.30;56.20;;;;;;5107243;28;20204;-72
2021/08/08 05:35:52;;;;;;;1.63;1.20;;;23.30;56.20;;;;;;5099428;28;20193;-71
2021/08/08 05:38:22;;;;;;;2.77;1.47;;;23.30;56.20;;;;;;5105253;28;20636;-71
2021/08/08 05:40:52;;;;;;;2.93;1.57;;;23.20;56.20;;;;;;5101730;28;20204;-71
2021/08/08 05:43:22;;;;;;;2.73;1.53;;;23.20;56.20;;;;;;5102655;28;20208;-70
2021/08/08 05:45:56;;;;;;;1.80;1.40;;;23.20;56.20;;;;;;5106390;28;20196;-72
2021/08/08 05:48:26;;;;;;;3.00;1.77;;;23.30;56.20;;;;;;5108867;28;20193;-71
2021/08/08 05:50:57;;;;;;;3.67;1.67;;;23.20;56.20;;;;;;5098360;28;20207;-71
2021/08/08 05:53:28;;;;;;;2.90;1.70;;;23.20;56.10;;;;;;5101585;28;20213;-71
2021/08/08 05:56:00;;;;;;;4.13;1.67;;;23.20;56.10;;;;;;5095275;28;20205;-71
2021/08/08 05:58:32;;;;;;;4.90;1.60;;;23.20;56.10;;;;;;5106913;28;20202;-71
2021/08/08 06:01:06;;;;;;;3.10;1.57;;;23.20;56.20;;;;;;5095516;28;20385;-71
2021/08/08 06:03:34;;;;;;;3.00;1.53;;;23.20;56.10;;;;;;5100312;28;20697;-72
2021/08/08 06:06:09;;;;;;;2.73;1.60;;;23.20;56.10;;;;;;5099187;28;20203;-71
2021/08/08 06:08:40;;;;;;;3.43;1.70;;;23.20;56.10;;;;;;5100713;28;20188;-71
2021/08/08 06:11:11;;;;;;;3.20;1.60;;;23.20;56.10;;;;;;5106949;28;20265;-71
2021/08/08 06:13:38;;;;;;;3.27;1.70;;;23.20;56.10;;;;;;5099917;28;20201;-71
2021/08/08 06:16:08;;;;;;;3.20;1.60;;;23.20;56.10;;;;;;5107166;28;20208;-70
2021/08/08 06:18:37;;;;;;;3.40;1.40;;;23.20;56.10;;;;;;5098424;28;20653;-70
2021/08/08 06:21:05;;;;;;;2.40;1.60;;;23.20;56.10;;;;;;5106859;28;20193;-71
2021/08/08 06:23:36;;;;;;;1.80;1.57;;;23.20;56.10;;;;;;5089265;28;20319;-72
2021/08/08 06:26:06;;;;;;;3.23;1.53;;;23.20;56.10;;;;;;5107001;28;20246;-70
2021/08/08 06:28:41;;;;;;;2.57;1.40;;;23.20;56.10;;;;;;5098108;28;20411;-70
2021/08/08 06:31:22;;;;;;;2.40;1.30;;;23.20;56.10;;;;;;5102491;28;20200;-72
2021/08/08 06:33:53;;;;;;;2.33;1.50;;;23.20;56.10;;;;;;5096246;28;20205;-72
2021/08/08 06:36:23;;;;;;;2.27;1.43;;;23.20;56.10;;;;;;5102088;28;20245;-71
2021/08/08 06:38:57;;;;;;;2.40;1.40;;;23.20;56.10;;;;;;5104912;28;20294;-71
2021/08/08 06:41:27;;;;;;;3.30;1.47;;;23.20;56.10;;;;;;5099296;28;20227;-71
2021/08/08 06:43:55;;;;;;;2.87;1.50;;;23.20;56.00;;;;;;5108136;28;20221;-70
2021/08/08 06:46:25;;;;;;;2.10;1.30;;;23.20;56.00;;;;;;5106845;27;20870;-71
2021/08/08 06:48:54;;;;;;;2.17;1.27;;;23.20;56.00;;;;;;5109310;28;20196;-71
2021/08/08 06:51:36;;;;;;;2.90;1.50;;;23.20;56.00;;;;;;5098252;28;20280;-70
2021/08/08 06:54:08;;;;;;;2.63;1.20;;;23.20;56.00;;;;;;5100112;28;20205;-70
2021/08/08 06:56:42;;;;;;;3.83;1.60;;;23.20;56.00;;;;;;5107346;28;20209;-71
2021/08/08 06:59:13;;;;;;;4.03;1.63;;;23.20;56.00;;;;;;5103786;28;20247;-71
2021/08/08 07:01:44;;;;;;;2.93;1.43;;;23.20;56.00;;;;;;5106412;28;20231;-72
2021/08/08 07:04:20;;;;;;;2.33;1.43;;;23.20;55.90;;;;;;5106737;28;20218;-72
2021/08/08 07:06:55;;;;;;;2.23;1.50;;;23.20;55.90;;;;;;5104063;28;20207;-70
2021/08/08 07:09:26;;;;;;;2.47;1.50;;;23.20;56.00;;;;;;5106297;28;20212;-71
2021/08/08 07:11:57;;;;;;;3.70;1.60;;;23.20;55.90;;;;;;5110194;28;20203;-71
2021/08/08 07:14:26;;;;;;;2.60;1.60;;;23.20;55.90;;;;;;5107963;28;20212;-71
2021/08/08 07:16:58;;;;;;;2.63;1.40;;;23.20;55.90;;;;;;5099845;28;20193;-71
2021/08/08 07:19:43;;;;;;;3.73;2.10;;;23.20;55.80;;;;;;5103177;28;20279;-72
2021/08/08 07:22:15;;;;;;;2.20;1.57;;;23.20;55.90;;;;;;5105732;28;20205;-71
2021/08/08 07:24:51;;;;;;;3.40;1.70;;;23.20;55.90;;;;;;5103005;28;20257;-72
2021/08/08 07:27:26;;;;;;;2.73;1.67;;;23.20;55.90;;;;;;5111561;28;20200;-72
2021/08/08 07:29:58;;;;;;;3.10;1.53;;;23.20;55.90;;;;;;5105123;28;20207;-71
2021/08/08 07:32:26;;;;;;;3.43;1.60;;;23.20;55.90;;;;;;5107580;28;20200;-72
2021/08/08 07:34:55;;;;;;;2.80;1.70;;;23.20;55.80;;;;;;5100524;28;20283;-72
2021/08/08 07:37:32;;;;;;;1.97;1.43;;;23.20;55.80;;;;;;5098282;28;20207;-71
2021/08/08 07:40:10;;;;;;;3.27;1.50;;;23.20;55.80;;;;;;5105547;28;20204;-70
2021/08/08 07:42:52;;;;;;;2.37;1.37;;;23.20;55.80;;;;;;5100614;28;20224;-71
2021/08/08 07:45:31;;;;;;;1.90;1.67;;;23.20;55.80;;;;;;5109588;28;20210;-71
2021/08/08 07:47:59;;;;;;;2.70;1.53;;;23.20;55.80;;;;;;5097115;28;20645;-71
2021/08/08 07:50:29;;;;;;;2.50;1.87;;;23.30;55.80;;;;;;5108412;28;20287;-71
2021/08/08 07:52:58;;;;;;;3.10;1.70;;;23.20;55.80;;;;;;5105399;28;20767;-71
2021/08/08 07:55:31;;;;;;;2.40;1.50;;;23.30;55.80;;;;;;5107348;28;20204;-72
2021/08/08 07:58:02;;;;;;;2.77;1.77;;;23.20;56.00;;;;;;5103059;27;20218;-72
2021/08/08 08:00:33;;;;;;;2.67;1.77;;;23.20;55.80;;;;;;5107469;28;20267;-72
2021/08/08 08:03:16;;;;;;;3.53;1.80;;;23.20;55.80;;;;;;5104823;28;20900;-72
2021/08/08 08:05:48;;;;;;;3.67;1.87;;;23.30;55.80;;;;;;5108176;28;20698;-72
2021/08/08 08:08:16;;;;;;;2.73;1.50;;;23.30;55.80;;;;;;5105993;28;20196;-72
2021/08/08 08:10:48;;;;;;;2.73;1.43;;;23.20;55.80;;;;;;5103801;28;20201;-71
2021/08/08 08:13:30;;;;;;;4.13;1.60;;;23.30;55.80;;;;;;5108296;28;20177;-71
2021/08/08 08:16:03;;;;;;;1.97;1.40;;;23.30;55.90;;;;;;5104281;28;20223;-71
2021/08/08 08:18:31;;;;;;;1.87;1.53;;;23.30;55.80;;;;;;5101264;28;20199;-70
2021/08/08 08:21:03;;;;;;;3.57;1.70;;;23.30;55.80;;;;;;5098371;28;20189;-71
2021/08/08 08:23:32;;;;;;;4.67;1.60;;;23.30;55.80;;;;;;5093465;28;20188;-71
2021/08/08 08:26:04;;;;;;;2.73;1.60;;;23.30;55.90;;;;;;5103057;28;20192;-71
2021/08/08 08:28:35;;;;;;;2.47;1.60;;;23.30;55.80;;;;;;5108235;28;20222;-72
2021/08/08 08:31:17;;;;;;;2.90;1.70;;;23.30;55.80;;;;;;5088273;28;20243;-72
2021/08/08 08:33:48;;;;;;;3.23;1.63;;;23.30;55.80;;;;;;5102687;28;20262;-72
2021/08/08 08:36:21;;;;;;;2.80;1.93;;;23.30;55.80;;;;;;5107021;28;20195;-72
2021/08/08 08:38:55;;;;;;;2.80;1.67;;;23.30;55.80;;;;;;5097635;28;20197;-72
2021/08/08 08:41:31;;;;;;;2.57;1.63;;;23.30;55.80;;;;;;5106403;28;20204;-71
2021/08/08 08:44:01;;;;;;;2.60;1.70;;;23.30;55.70;;;;;;5099006;28;20212;-71
2021/08/08 08:46:36;;;;;;;2.97;1.63;;;23.30;55.80;;;;;;5109329;28;20199;-70
2021/08/08 08:49:13;;;;;;;4.03;1.80;;;23.30;55.80;;;;;;5101139;28;20204;-70
2021/08/08 08:52:02;;;;;;;2.60;1.60;;;23.30;55.80;;;;;;5093823;28;20215;-71
2021/08/08 08:54:44;;;;;;;2.03;1.57;;;23.30;55.80;;;;;;5106014;28;20721;-71
2021/08/08 08:57:39;;;;;;;3.37;1.73;;;23.30;55.80;;;;;;5107170;28;20215;-71
2021/08/08 09:00:09;;;;;;;2.10;1.70;;;23.30;55.80;;;;;;5090978;28;20227;-70
2021/08/08 09:02:40;;;;;;;3.30;1.70;;;23.30;55.80;;;;;;5103157;28;20197;-71
2021/08/08 09:05:08;;;;;;;3.27;1.73;;;23.30;55.80;;;;;;5108425;28;20253;-71
2021/08/08 09:07:40;;;;;;;3.93;2.10;;;23.30;55.80;;;;;;5105404;28;20607;-72
2021/08/08 09:10:15;;;;;;;2.80;1.80;;;23.30;55.80;;;;;;5091227;28;20220;-72
2021/08/08 09:12:56;;;;;;;3.93;1.63;;;23.30;55.80;;;;;;5101313;28;20558;-72
2021/08/08 09:15:39;;;;;;;3.33;1.70;;;23.30;55.80;;;;;;5108118;28;20207;-72
2021/08/08 09:18:22;;;;;;;3.60;1.77;;;23.30;55.70;;;;;;5105267;28;20208;-72
2021/08/08 09:20:52;;;;;;;3.30;1.60;;;23.30;55.70;;;;;;5099891;28;20618;-71
2021/08/08 09:23:33;;;;;;;3.87;2.10;;;23.30;55.60;;;;;;5092313;28;20246;-71
2021/08/08 09:26:03;;;;;;;2.60;1.67;;;23.30;55.70;;;;;;5096318;28;20895;-72
2021/08/08 09:28:35;;;;;;;2.83;1.77;;;23.30;55.60;;;;;;5110133;28;20656;-72
2021/08/08 09:31:23;;;;;;;3.23;1.80;;;23.30;55.60;;;;;;5102387;28;20204;-72
2021/08/08 09:33:53;;;;;;;4.03;1.97;;;23.30;55.70;;;;;;5106062;28;20207;-72
2021/08/08 09:36:27;;;;;;;3.03;2.23;;;23.30;55.70;;;;;;5097941;28;20310;-72
2021/08/08 09:38:56;;;;;;;3.00;1.77;;;23.30;55.70;;;;;;5087610;28;20239;-72
2021/08/08 09:41:26;;;;;;;4.37;1.67;;;23.30;55.70;;;;;;5102304;28;20196;-71
2021/08/08 09:44:04;;;;;;;3.57;1.90;;;23.30;55.70;;;;;;5098052;28;20299;-72
2021/08/08 09:46:35;;;;;;;3.27;1.83;;;23.30;55.70;;;;;;5096395;28;20228;-72
2021/08/08 09:49:10;;;;;;;2.77;1.77;;;23.40;55.70;;;;;;5105995;28;20205;-72
2021/08/08 09:52:03;;;;;;;4.30;2.10;;;23.30;55.60;;;;;;5102992;28;20189;-72
2021/08/08 09:54:37;;;;;;;4.00;1.60;;;23.30;55.60;;;;;;5102541;28;20212;-72
2021/08/08 09:57:10;;;;;;;2.80;2.03;;;23.40;55.60;;;;;;5110018;28;20294;-72
2021/08/08 09:59:49;;;;;;;3.83;1.87;;;23.40;55.70;;;;;;5110369;28;20204;-72
2021/08/08 10:02:23;;;;;;;3.50;1.80;;;23.40;55.60;;;;;;5105425;28;20250;-71
2021/08/08 10:04:52;;;;;;;3.87;1.97;;;23.40;55.60;;;;;;5103322;28;20348;-72
2021/08/08 10:07:28;;;;;;;3.37;1.97;;;23.40;55.60;;;;;;5104326;28;20204;-70
2021/08/08 10:10:10;;;;;;;2.90;1.60;;;23.40;55.60;;;;;;5102876;28;20212;-70
2021/08/08 10:13:11;;;;;;;5.63;1.73;;;23.40;55.60;;;;;;5100100;28;20503;-71
2021/08/08 10:15:46;;;;;;;3.60;1.63;;;23.40;55.60;;;;;;5107578;28;20258;-71
2021/08/08 10:18:24;;;;;;;3.07;1.60;;;23.40;55.60;;;;;;5098323;28;20190;-71
2021/08/08 10:20:53;;;;;;;2.90;1.80;;;23.40;55.60;;;;;;5102963;28;20303;-70
2021/08/08 10:23:27;;;;;;;5.17;1.70;;;23.40;55.60;;;;;;5092796;28;20200;-71
2021/08/08 10:25:57;;;;;;;2.87;1.80;;;23.40;55.60;;;;;;5108904;28;20713;-71
2021/08/08 10:28:53;;;;;;;3.73;1.80;;;23.40;55.50;;;;;;5103325;28;20188;-70
2021/08/08 10:31:30;;;;;;;2.17;1.70;;;23.50;55.60;;;;;;5107675;28;20638;-71
2021/08/08 10:34:00;;;;;;;1.83;1.40;;;23.40;55.50;;;;;;5105940;28;20212;-71
2021/08/08 10:36:38;;;;;;;3.27;1.87;;;23.40;55.60;;;;;;5102263;28;20216;-71
2021/08/08 10:39:16;;;;;;;2.57;1.70;;;23.50;55.60;;;;;;5101200;28;20193;-71
2021/08/08 10:42:04;;;;;;;5.13;2.07;;;23.50;55.50;;;;;;5105574;28;20197;-71
2021/08/08 10:44:48;;;;;;;3.97;1.87;;;23.50;55.60;;;;;;5109184;28;20213;-71
2021/08/08 10:47:33;;;;;;;3.47;2.03;;;23.50;55.60;;;;;;5105163;28;20199;-71
2021/08/08 10:50:15;;;;;;;2.80;1.30;;;23.50;55.70;;;;;;5109630;28;20200;-72
2021/08/08 10:52:49;;;;;;;3.07;1.57;;;23.50;55.60;;;;;;5093888;28;20809;-72
2021/08/08 10:55:28;;;;;;;2.03;1.60;;;23.50;55.60;;;;;;5105390;28;20675;-72
2021/08/08 10:58:10;;;;;;;2.93;1.67;;;23.50;55.50;;;;;;5107844;28;20203;-72
2021/08/08 11:00:38;;;;;;;2.57;1.50;;;23.50;55.70;;;;;;5102974;28;20232;-73
2021/08/08 11:03:17;;;;;;;2.20;1.73;;;23.50;55.60;;;;;;5111454;28;20781;-73
2021/08/08 11:05:48;;;;;;;3.70;1.87;;;23.50;55.60;;;;;;5102495;28;20227;-72
2021/08/08 11:08:22;;;;;;;2.10;1.53;;;23.50;55.50;;;;;;5106698;28;20650;-73
2021/08/08 11:10:54;;;;;;;2.70;1.57;;;23.60;55.60;;;;;;5104500;28;20614;-71
2021/08/08 11:13:23;;;;;;;2.43;1.73;;;23.60;55.60;;;;;;5106237;28;20205;-71
2021/08/08 11:15:56;;;;;;;2.00;1.70;;;23.50;55.60;;;;;;5109663;28;20211;-72
2021/08/08 11:18:33;;;;;;;2.07;1.40;;;23.60;55.60;;;;;;5109996;28;20196;-72
2021/08/08 11:21:11;;;;;;;3.10;1.93;;;23.60;55.60;;;;;;5106160;28;20242;-72
2021/08/08 11:23:44;;;;;;;3.13;1.40;;;23.60;55.60;;;;;;5102080;28;20206;-72
2021/08/08 11:26:17;;;;;;;2.30;1.70;;;23.60;55.50;;;;;;5109011;28;20204;-72
2021/08/08 11:29:04;;;;;;;2.57;1.43;;;23.60;55.60;;;;;;5100511;28;20271;-72
2021/08/08 11:31:39;;;;;;;2.43;1.70;;;23.60;55.60;;;;;;5095975;28;20202;-72
2021/08/08 11:34:12;;;;;;;2.40;1.50;;;23.60;55.60;;;;;;5102202;28;20199;-72
2021/08/08 11:36:43;;;;;;;2.87;1.30;;;23.60;55.60;;;;;;5107295;28;20193;-72
2021/08/08 11:39:14;;;;;;;2.80;1.60;;;23.60;55.60;;;;;;5099801;28;20192;-73
2021/08/08 11:41:43;;;;;;;3.50;1.83;;;23.70;55.70;;;;;;5104737;28;20550;-73
2021/08/08 11:44:34;;;;;;;3.80;1.70;;;23.60;55.60;;;;;;5091364;28;20246;-73
2021/08/08 11:47:02;;;;;;;2.67;1.30;;;23.60;55.60;;;;;;5104020;28;20536;-72
2021/08/08 11:49:43;;;;;;;2.20;1.50;;;23.60;55.60;;;;;;5109285;28;20649;-72
2021/08/08 11:52:20;;;;;;;3.60;1.60;;;23.60;55.60;;;;;;5098996;28;20196;-72
2021/08/08 11:55:12;;;;;;;3.20;1.60;;;23.70;55.60;;;;;;5103118;28;20241;-72
2021/08/08 11:57:48;;;;;;;2.90;1.60;;;23.60;55.60;;;;;;5103633;28;20204;-71
2021/08/08 12:00:30;;;;;;;3.57;2.00;;;23.70;55.60;;;;;;5100138;28;20215;-72
2021/08/08 12:03:08;;;;;;;2.87;1.33;;;23.60;55.60;;;;;;5089857;28;20568;-72
2021/08/08 12:05:46;;;;;;;2.37;1.47;;;23.70;55.60;;;;;;5087662;28;20613;-72
2021/08/08 12:08:24;;;;;;;3.43;1.70;;;23.70;55.70;;;;;;5110514;28;20199;-72
2021/08/08 12:10:57;;;;;;;2.53;1.43;;;23.70;55.70;;;;;;5104071;28;20193;-72
2021/08/08 12:13:32;;;;;;;3.50;1.70;;;23.70;55.60;;;;;;5091476;28;20201;-72
2021/08/08 12:16:13;;;;;;;2.97;1.47;;;23.70;55.60;;;;;;5103203;28;20199;-71
2021/08/08 12:18:45;;;;;;;2.40;1.40;;;23.70;55.70;;;;;;5105937;28;20208;-71
2021/08/08 12:21:18;;;;;;;1.93;1.50;;;23.70;55.70;;;;;;5102953;28;20188;-71
2021/08/08 12:23:46;;;;;;;2.93;1.70;;;23.70;55.60;;;;;;5099058;28;20215;-72
2021/08/08 12:26:25;;;;;;;3.37;1.50;;;23.70;55.60;;;;;;5103137;28;20846;-72
2021/08/08 12:29:28;;;;;;;1.87;1.40;;;23.70;55.60;;;;;;5120137;27;20203;-72
2021/08/08 12:32:17;;;;;;;2.53;1.50;;;23.70;55.50;;;;;;5099504;28;20211;-72
2021/08/08 12:34:47;;;;;;;2.07;1.47;;;23.80;55.70;;;;;;5099753;28;20218;-72
2021/08/08 12:37:22;;;;;;;2.73;1.40;;;23.70;55.60;;;;;;5106253;28;20201;-71
2021/08/08 12:39:54;;;;;;;1.60;1.17;;;23.80;55.70;;;;;;5098495;28;20229;-72
2021/08/08 12:42:25;;;;;;;1.83;1.43;;;23.80;55.70;;;;;;5106650;28;20281;-72
2021/08/08 12:45:15;;;;;;;1.97;1.40;;;23.80;55.70;;;;;;5092134;28;20205;-72
2021/08/08 12:48:09;;;;;;;1.57;1.07;;;23.80;55.70;;;;;;5104296;28;20200;-70
2021/08/08 12:50:43;;;;;;;3.03;1.20;;;23.80;55.70;;;;;;5125884;27;20280;-71
2021/08/08 12:53:14;;;;;;;2.40;1.23;;;23.80;55.60;;;;;;5101873;27;20211;-71
2021/08/08 12:55:47;;;;;;;2.80;1.50;;;23.80;55.60;;;;;;5093091;28;20189;-71
2021/08/08 12:58:18;;;;;;;2.63;1.50;;;23.80;55.60;;;;;;5096366;28;20211;-71
2021/08/08 13:00:52;;;;;;;2.37;1.33;;;23.80;55.60;;;;;;5105416;28;20700;-71
2021/08/08 13:03:24;;;;;;;3.07;1.53;;;23.80;55.60;;;;;;5099577;28;20205;-71
2021/08/08 13:05:55;;;;;;;1.70;1.30;;;23.80;55.50;;;;;;5098600;28;20223;-71
2021/08/08 13:08:25;;;;;;;1.63;1.33;;;23.80;55.50;;;;;;5103876;28;20197;-72
2021/08/08 13:10:57;;;;;;;2.53;1.43;;;23.80;55.50;;;;;;5106816;28;20223;-71
2021/08/08 13:13:38;;;;;;;1.93;1.20;;;23.90;55.50;;;;;;5101511;28;20196;-72
2021/08/08 13:16:09;;;;;;;2.10;1.10;;;23.90;55.60;;;;;;5102705;28;20227;-72
2021/08/08 13:18:40;;;;;;;1.83;1.30;;;23.90;55.50;;;;;;5106858;28;20672;-72